sensor_id;sensor_type;location;lat;lon;timestamp;P1;durP1;ratioP1;P2;durP2;ratioP2
8139;SDS011;4111;50.972;7.072;2022-09-01T00:01:38;4.53;;;2.00;;
8139;SDS011;4111;50.972;7.072;2022-09-01T00:04:08;2.80;;;1.80;;
8139;SDS011;4111;50.972;7.072;2022-09-01T00:06:37;1.97;;;1.87;;
8139;SDS011;4111;50.972;7.072;2022-09-01T00:09:07;2.00;;;1.90;;
8139;SDS011;4111;50.972;7.072;2022-09-01T00:11:39;1.80;;;1.70;;
8139;SDS011;4111;50.972;7.072;2022-09-01T00:14:15;2.37;;;2.20;;
8139;SDS011;4111;50.972;7.072;2022-09-01T00:16:56;2.20;;;2.00;;
8139;SDS011;4111;50.972;7.072;2022-09-01T00:19:27;2.87;;;2.43;;
8139;SDS011;4111;50.972;7.072;2022-09-01T00:21:55;2.20;;;2.10;;
8139;SDS011;4111;50.972;7.072;2022-09-01T00:24:22;2.40;;;2.20;;
8139;SDS011;4111;50.972;7.072;2022-09-01T00:26:51;1.83;;;1.73;;
8139;SDS011;4111;50.972;7.072;2022-09-01T00:29:19;1.87;;;1.77;;
8139;SDS011;4111;50.972;7.072;2022-09-01T00:31:46;2.10;;;2.00;;
8139;SDS011;4111;50.972;7.072;2022-09-01T00:34:13;2.10;;;2.00;;
8139;SDS011;4111;50.972;7.072;2022-09-01T00:36:39;2.27;;;2.10;;
8139;SDS011;4111;50.972;7.072;2022-09-01T00:39:06;1.97;;;1.87;;
8139;SDS011;4111;50.972;7.072;2022-09-01T00:41:33;2.23;;;2.07;;
8139;SDS011;4111;50.972;7.072;2022-09-01T00:44:07;2.00;;;1.80;;
8139;SDS011;4111;50.972;7.072;2022-09-01T00:46:38;2.40;;;2.30;;
8139;SDS011;4111;50.972;7.072;2022-09-01T00:49:17;2.30;;;2.20;;
8139;SDS011;4111;50.972;7.072;2022-09-01T00:51:48;2.07;;;1.97;;
8139;SDS011;4111;50.972;7.072;2022-09-01T00:54:22;1.97;;;1.87;;
8139;SDS011;4111;50.972;7.072;2022-09-01T00:56:52;2.63;;;1.90;;
8139;SDS011;4111;50.972;7.072;2022-09-01T00:59:23;5.37;;;1.90;;
8139;SDS011;4111;50.972;7.072;2022-09-01T01:01:52;4.83;;;2.03;;
8139;SDS011;4111;50.972;7.072;2022-09-01T01:04:20;2.13;;;1.90;;
8139;SDS011;4111;50.972;7.072;2022-09-01T01:06:49;2.50;;;2.07;;
8139;SDS011;4111;50.972;7.072;2022-09-01T01:09:24;3.30;;;2.20;;
8139;SDS011;4111;50.972;7.072;2022-09-01T01:11:52;3.10;;;2.23;;
8139;SDS011;4111;50.972;7.072;2022-09-01T01:14:19;4.67;;;2.07;;
8139;SDS011;4111;50.972;7.072;2022-09-01T01:16:46;1.87;;;1.70;;
8139;SDS011;4111;50.972;7.072;2022-09-01T01:22:15;3.83;;;1.70;;
8139;SDS011;4111;50.972;7.072;2022-09-01T01:25:05;1.97;;;1.87;;
8139;SDS011;4111;50.972;7.072;2022-09-01T01:27:33;2.23;;;2.00;;
8139;SDS011;4111;50.972;7.072;2022-09-01T01:30:08;1.80;;;1.70;;
8139;SDS011;4111;50.972;7.072;2022-09-01T01:32:36;2.17;;;2.00;;
8139;SDS011;4111;50.972;7.072;2022-09-01T01:35:09;1.90;;;1.80;;
8139;SDS011;4111;50.972;7.072;2022-09-01T01:37:40;3.57;;;1.80;;
8139;SDS011;4111;50.972;7.072;2022-09-01T01:40:15;2.43;;;1.77;;
8139;SDS011;4111;50.972;7.072;2022-09-01T01:42:44;3.90;;;1.73;;
8139;SDS011;4111;50.972;7.072;2022-09-01T01:45:13;4.80;;;2.00;;
8139;SDS011;4111;50.972;7.072;2022-09-01T01:47:45;1.90;;;1.80;;
8139;SDS011;4111;50.972;7.072;2022-09-01T01:50:36;2.27;;;2.17;;
8139;SDS011;4111;50.972;7.072;2022-09-01T01:53:05;2.00;;;1.90;;
8139;SDS011;4111;50.972;7.072;2022-09-01T01:55:36;3.67;;;2.00;;
8139;SDS011;4111;50.972;7.072;2022-09-01T01:58:04;2.53;;;2.20;;
8139;SDS011;4111;50.972;7.072;2022-09-01T02:00:31;3.00;;;2.20;;
8139;SDS011;4111;50.972;7.072;2022-09-01T02:02:59;2.03;;;1.93;;
8139;SDS011;4111;50.972;7.072;2022-09-01T02:05:27;2.60;;;1.90;;
8139;SDS011;4111;50.972;7.072;2022-09-01T02:07:58;1.90;;;1.80;;
8139;SDS011;4111;50.972;7.072;2022-09-01T02:10:40;3.63;;;1.67;;
8139;SDS011;4111;50.972;7.072;2022-09-01T02:13:12;4.37;;;1.43;;
8139;SDS011;4111;50.972;7.072;2022-09-01T02:15:46;1.53;;;1.43;;
8139;SDS011;4111;50.972;7.072;2022-09-01T02:18:23;3.87;;;1.40;;
8139;SDS011;4111;50.972;7.072;2022-09-01T02:21:02;2.30;;;1.40;;
8139;SDS011;4111;50.972;7.072;2022-09-01T02:23:37;1.70;;;1.60;;
8139;SDS011;4111;50.972;7.072;2022-09-01T02:26:05;1.77;;;1.40;;
8139;SDS011;4111;50.972;7.072;2022-09-01T02:28:44;1.70;;;1.37;;
8139;SDS011;4111;50.972;7.072;2022-09-01T02:31:20;4.23;;;1.53;;
8139;SDS011;4111;50.972;7.072;2022-09-01T02:33:48;2.20;;;1.57;;
8139;SDS011;4111;50.972;7.072;2022-09-01T02:36:15;2.03;;;1.30;;
8139;SDS011;4111;50.972;7.072;2022-09-01T02:38:44;1.63;;;1.53;;
8139;SDS011;4111;50.972;7.072;2022-09-01T02:41:20;2.47;;;1.60;;
8139;SDS011;4111;50.972;7.072;2022-09-01T02:43:50;5.70;;;1.47;;
8139;SDS011;4111;50.972;7.072;2022-09-01T02:46:16;4.03;;;1.60;;
8139;SDS011;4111;50.972;7.072;2022-09-01T02:48:49;4.37;;;1.53;;
8139;SDS011;4111;50.972;7.072;2022-09-01T02:51:17;1.50;;;1.40;;
8139;SDS011;4111;50.972;7.072;2022-09-01T02:53:46;3.53;;;1.50;;
8139;SDS011;4111;50.972;7.072;2022-09-01T02:56:18;1.50;;;1.40;;
8139;SDS011;4111;50.972;7.072;2022-09-01T02:58:50;1.13;;;1.13;;
8139;SDS011;4111;50.972;7.072;2022-09-01T03:01:22;1.70;;;1.60;;
8139;SDS011;4111;50.972;7.072;2022-09-01T03:03:56;1.50;;;1.40;;
8139;SDS011;4111;50.972;7.072;2022-09-01T03:06:28;1.67;;;1.50;;
8139;SDS011;4111;50.972;7.072;2022-09-01T03:08:59;1.50;;;1.40;;
8139;SDS011;4111;50.972;7.072;2022-09-01T03:11:27;1.37;;;1.27;;
8139;SDS011;4111;50.972;7.072;2022-09-01T03:13:56;1.30;;;1.20;;
8139;SDS011;4111;50.972;7.072;2022-09-01T03:16:23;1.63;;;1.53;;
8139;SDS011;4111;50.972;7.072;2022-09-01T03:18:50;3.03;;;1.53;;
8139;SDS011;4111;50.972;7.072;2022-09-01T03:21:17;1.80;;;1.60;;
8139;SDS011;4111;50.972;7.072;2022-09-01T03:23:45;3.17;;;1.43;;
8139;SDS011;4111;50.972;7.072;2022-09-01T03:26:13;1.70;;;1.60;;
8139;SDS011;4111;50.972;7.072;2022-09-01T03:28:41;2.13;;;1.53;;
8139;SDS011;4111;50.972;7.072;2022-09-01T03:31:10;1.60;;;1.50;;
8139;SDS011;4111;50.972;7.072;2022-09-01T03:33:37;1.73;;;1.60;;
8139;SDS011;4111;50.972;7.072;2022-09-01T03:36:04;1.77;;;1.67;;
8139;SDS011;4111;50.972;7.072;2022-09-01T03:38:40;2.97;;;1.67;;
8139;SDS011;4111;50.972;7.072;2022-09-01T03:41:08;1.67;;;1.57;;
8139;SDS011;4111;50.972;7.072;2022-09-01T03:43:35;3.53;;;1.60;;
8139;SDS011;4111;50.972;7.072;2022-09-01T03:46:01;4.03;;;1.53;;
8139;SDS011;4111;50.972;7.072;2022-09-01T03:48:29;1.60;;;1.50;;
8139;SDS011;4111;50.972;7.072;2022-09-01T03:50:57;1.70;;;1.60;;
8139;SDS011;4111;50.972;7.072;2022-09-01T03:53:29;2.83;;;1.60;;
8139;SDS011;4111;50.972;7.072;2022-09-01T03:56:00;2.63;;;1.80;;
8139;SDS011;4111;50.972;7.072;2022-09-01T03:58:29;2.73;;;1.57;;
8139;SDS011;4111;50.972;7.072;2022-09-01T04:00:56;2.43;;;2.13;;
8139;SDS011;4111;50.972;7.072;2022-09-01T04:03:26;3.23;;;1.70;;
8139;SDS011;4111;50.972;7.072;2022-09-01T04:05:57;2.20;;;1.63;;
8139;SDS011;4111;50.972;7.072;2022-09-01T04:08:24;1.60;;;1.50;;
8139;SDS011;4111;50.972;7.072;2022-09-01T04:10:59;1.70;;;1.60;;
8139;SDS011;4111;50.972;7.072;2022-09-01T04:13:38;3.10;;;1.87;;
8139;SDS011;4111;50.972;7.072;2022-09-01T04:16:06;1.60;;;1.50;;
8139;SDS011;4111;50.972;7.072;2022-09-01T04:19:03;3.63;;;1.60;;
8139;SDS011;4111;50.972;7.072;2022-09-01T04:21:42;2.17;;;1.87;;
8139;SDS011;4111;50.972;7.072;2022-09-01T04:24:09;2.33;;;1.87;;
8139;SDS011;4111;50.972;7.072;2022-09-01T04:26:38;2.80;;;2.20;;
8139;SDS011;4111;50.972;7.072;2022-09-01T04:29:06;2.27;;;2.07;;
8139;SDS011;4111;50.972;7.072;2022-09-01T04:31:34;3.13;;;1.73;;
8139;SDS011;4111;50.972;7.072;2022-09-01T04:34:03;1.83;;;1.73;;
8139;SDS011;4111;50.972;7.072;2022-09-01T04:36:36;5.47;;;1.83;;
8139;SDS011;4111;50.972;7.072;2022-09-01T04:39:04;2.40;;;1.53;;
8139;SDS011;4111;50.972;7.072;2022-09-01T04:41:38;2.83;;;2.03;;
8139;SDS011;4111;50.972;7.072;2022-09-01T04:44:07;4.70;;;2.30;;
8139;SDS011;4111;50.972;7.072;2022-09-01T04:46:35;2.07;;;1.83;;
8139;SDS011;4111;50.972;7.072;2022-09-01T04:49:07;5.80;;;1.93;;
8139;SDS011;4111;50.972;7.072;2022-09-01T04:51:42;3.67;;;2.23;;
8139;SDS011;4111;50.972;7.072;2022-09-01T04:54:10;2.73;;;2.10;;
8139;SDS011;4111;50.972;7.072;2022-09-01T04:56:44;3.03;;;2.83;;
8139;SDS011;4111;50.972;7.072;2022-09-01T04:59:13;5.87;;;2.63;;
8139;SDS011;4111;50.972;7.072;2022-09-01T05:01:40;5.17;;;2.50;;
8139;SDS011;4111;50.972;7.072;2022-09-01T05:04:20;5.10;;;2.50;;
8139;SDS011;4111;50.972;7.072;2022-09-01T05:06:52;5.53;;;2.40;;
8139;SDS011;4111;50.972;7.072;2022-09-01T05:09:23;5.67;;;2.30;;
8139;SDS011;4111;50.972;7.072;2022-09-01T05:11:52;4.43;;;2.50;;
8139;SDS011;4111;50.972;7.072;2022-09-01T05:14:19;2.60;;;2.00;;
8139;SDS011;4111;50.972;7.072;2022-09-01T05:16:46;2.57;;;2.37;;
8139;SDS011;4111;50.972;7.072;2022-09-01T05:19:14;2.60;;;2.40;;
8139;SDS011;4111;50.972;7.072;2022-09-01T05:21:43;3.13;;;2.30;;
8139;SDS011;4111;50.972;7.072;2022-09-01T05:24:15;2.40;;;2.20;;
8139;SDS011;4111;50.972;7.072;2022-09-01T05:26:45;2.40;;;2.20;;
8139;SDS011;4111;50.972;7.072;2022-09-01T05:29:15;3.07;;;2.23;;
8139;SDS011;4111;50.972;7.072;2022-09-01T05:31:44;3.20;;;2.20;;
8139;SDS011;4111;50.972;7.072;2022-09-01T05:34:14;3.27;;;2.10;;
8139;SDS011;4111;50.972;7.072;2022-09-01T05:36:45;3.00;;;2.23;;
8139;SDS011;4111;50.972;7.072;2022-09-01T05:39:15;4.67;;;2.50;;
8139;SDS011;4111;50.972;7.072;2022-09-01T05:41:42;2.30;;;2.10;;
8139;SDS011;4111;50.972;7.072;2022-09-01T05:44:08;2.17;;;2.03;;
8139;SDS011;4111;50.972;7.072;2022-09-01T05:46:36;3.33;;;1.80;;
8139;SDS011;4111;50.972;7.072;2022-09-01T05:49:05;4.63;;;1.73;;
8139;SDS011;4111;50.972;7.072;2022-09-01T05:51:34;4.13;;;1.80;;
8139;SDS011;4111;50.972;7.072;2022-09-01T05:54:11;2.27;;;1.80;;
8139;SDS011;4111;50.972;7.072;2022-09-01T05:56:40;2.97;;;1.90;;
8139;SDS011;4111;50.972;7.072;2022-09-01T05:59:09;4.90;;;1.90;;
8139;SDS011;4111;50.972;7.072;2022-09-01T06:01:52;3.70;;;1.87;;
8139;SDS011;4111;50.972;7.072;2022-09-01T06:04:21;2.60;;;1.60;;
8139;SDS011;4111;50.972;7.072;2022-09-01T06:06:49;4.40;;;1.50;;
8139;SDS011;4111;50.972;7.072;2022-09-01T06:09:35;5.60;;;1.60;;
8139;SDS011;4111;50.972;7.072;2022-09-01T06:12:06;2.00;;;1.90;;
8139;SDS011;4111;50.972;7.072;2022-09-01T06:14:43;1.83;;;1.73;;
8139;SDS011;4111;50.972;7.072;2022-09-01T06:17:14;2.20;;;1.67;;
8139;SDS011;4111;50.972;7.072;2022-09-01T06:19:42;2.43;;;1.90;;
8139;SDS011;4111;50.972;7.072;2022-09-01T06:22:09;2.13;;;1.40;;
8139;SDS011;4111;50.972;7.072;2022-09-01T06:24:37;2.10;;;1.70;;
8139;SDS011;4111;50.972;7.072;2022-09-01T06:27:07;2.27;;;1.50;;
8139;SDS011;4111;50.972;7.072;2022-09-01T06:29:35;1.80;;;1.50;;
8139;SDS011;4111;50.972;7.072;2022-09-01T06:32:05;1.73;;;1.60;;
8139;SDS011;4111;50.972;7.072;2022-09-01T06:34:38;1.80;;;1.70;;
8139;SDS011;4111;50.972;7.072;2022-09-01T06:37:07;1.70;;;1.60;;
8139;SDS011;4111;50.972;7.072;2022-09-01T06:39:35;3.37;;;1.40;;
8139;SDS011;4111;50.972;7.072;2022-09-01T06:42:02;2.47;;;1.70;;
8139;SDS011;4111;50.972;7.072;2022-09-01T06:44:31;1.70;;;1.60;;
8139;SDS011;4111;50.972;7.072;2022-09-01T06:46:58;5.33;;;1.60;;
8139;SDS011;4111;50.972;7.072;2022-09-01T06:49:25;1.50;;;1.40;;
8139;SDS011;4111;50.972;7.072;2022-09-01T06:51:58;2.60;;;1.73;;
8139;SDS011;4111;50.972;7.072;2022-09-01T06:54:24;1.53;;;1.37;;
8139;SDS011;4111;50.972;7.072;2022-09-01T06:56:52;2.47;;;1.50;;
8139;SDS011;4111;50.972;7.072;2022-09-01T06:59:19;4.07;;;1.53;;
8139;SDS011;4111;50.972;7.072;2022-09-01T07:01:46;1.27;;;1.17;;
8139;SDS011;4111;50.972;7.072;2022-09-01T07:04:27;1.40;;;1.30;;
8139;SDS011;4111;50.972;7.072;2022-09-01T07:06:55;4.67;;;1.50;;
8139;SDS011;4111;50.972;7.072;2022-09-01T07:09:42;3.90;;;1.33;;
8139;SDS011;4111;50.972;7.072;2022-09-01T07:12:15;1.53;;;1.13;;
8139;SDS011;4111;50.972;7.072;2022-09-01T07:14:53;2.10;;;1.47;;
8139;SDS011;4111;50.972;7.072;2022-09-01T07:17:40;1.47;;;1.30;;
8139;SDS011;4111;50.972;7.072;2022-09-01T07:20:08;1.33;;;1.23;;
8139;SDS011;4111;50.972;7.072;2022-09-01T07:22:52;1.57;;;1.40;;
8139;SDS011;4111;50.972;7.072;2022-09-01T07:25:29;5.60;;;1.20;;
8139;SDS011;4111;50.972;7.072;2022-09-01T07:28:19;1.20;;;1.10;;
8139;SDS011;4111;50.972;7.072;2022-09-01T07:30:50;3.90;;;1.40;;
8139;SDS011;4111;50.972;7.072;2022-09-01T07:33:18;1.33;;;1.30;;
8139;SDS011;4111;50.972;7.072;2022-09-01T07:36:09;3.10;;;1.60;;
8139;SDS011;4111;50.972;7.072;2022-09-01T07:38:52;3.10;;;1.20;;
8139;SDS011;4111;50.972;7.072;2022-09-01T07:41:39;1.63;;;1.43;;
8139;SDS011;4111;50.972;7.072;2022-09-01T07:44:27;2.42;;;1.42;;
8139;SDS011;4111;50.972;7.072;2022-09-01T07:46:53;1.30;;;1.20;;
8139;SDS011;4111;50.972;7.072;2022-09-01T07:49:40;2.67;;;1.20;;
8139;SDS011;4111;50.972;7.072;2022-09-01T07:52:26;1.80;;;1.20;;
8139;SDS011;4111;50.972;7.072;2022-09-01T07:54:54;4.88;;;1.40;;
8139;SDS011;4111;50.972;7.072;2022-09-01T07:57:21;3.60;;;1.35;;
8139;SDS011;4111;50.972;7.072;2022-09-01T07:59:48;3.20;;;1.27;;
8139;SDS011;4111;50.972;7.072;2022-09-01T08:02:19;1.55;;;1.42;;
8139;SDS011;4111;50.972;7.072;2022-09-01T08:04:45;1.70;;;1.52;;
8139;SDS011;4111;50.972;7.072;2022-09-01T08:07:11;3.47;;;1.50;;
8139;SDS011;4111;50.972;7.072;2022-09-01T08:09:41;1.48;;;1.30;;
8139;SDS011;4111;50.972;7.072;2022-09-01T08:12:09;2.25;;;1.65;;
8139;SDS011;4111;50.972;7.072;2022-09-01T08:14:36;1.35;;;1.25;;
8139;SDS011;4111;50.972;7.072;2022-09-01T08:17:03;2.90;;;1.80;;
8139;SDS011;4111;50.972;7.072;2022-09-01T08:19:50;2.22;;;1.73;;
8139;SDS011;4111;50.972;7.072;2022-09-01T08:22:18;1.25;;;1.20;;
8139;SDS011;4111;50.972;7.072;2022-09-01T08:24:50;2.17;;;1.60;;
8139;SDS011;4111;50.972;7.072;2022-09-01T08:27:17;1.40;;;1.30;;
8139;SDS011;4111;50.972;7.072;2022-09-01T08:29:45;1.50;;;1.40;;
8139;SDS011;4111;50.972;7.072;2022-09-01T08:32:12;1.42;;;1.33;;
8139;SDS011;4111;50.972;7.072;2022-09-01T08:34:38;1.70;;;1.25;;
8139;SDS011;4111;50.972;7.072;2022-09-01T08:37:05;3.35;;;1.50;;
8139;SDS011;4111;50.972;7.072;2022-09-01T08:39:31;2.03;;;1.50;;
8139;SDS011;4111;50.972;7.072;2022-09-01T08:42:05;1.75;;;1.60;;
8139;SDS011;4111;50.972;7.072;2022-09-01T08:45:00;3.05;;;1.35;;
8139;SDS011;4111;50.972;7.072;2022-09-01T08:47:35;1.88;;;1.40;;
8139;SDS011;4111;50.972;7.072;2022-09-01T08:50:22;2.67;;;1.55;;
8139;SDS011;4111;50.972;7.072;2022-09-01T08:55:54;1.80;;;1.52;;
8139;SDS011;4111;50.972;7.072;2022-09-01T08:58:22;1.95;;;1.65;;
8139;SDS011;4111;50.972;7.072;2022-09-01T09:01:10;3.50;;;1.23;;
8139;SDS011;4111;50.972;7.072;2022-09-01T09:06:44;1.35;;;1.02;;
8139;SDS011;4111;50.972;7.072;2022-09-01T09:09:19;1.58;;;1.35;;
8139;SDS011;4111;50.972;7.072;2022-09-01T09:12:02;2.83;;;1.10;;
8139;SDS011;4111;50.972;7.072;2022-09-01T09:17:16;4.00;;;1.10;;
8139;SDS011;4111;50.972;7.072;2022-09-01T09:19:46;2.53;;;1.30;;
8139;SDS011;4111;50.972;7.072;2022-09-01T09:22:14;1.15;;;1.10;;
8139;SDS011;4111;50.972;7.072;2022-09-01T09:24:45;2.88;;;1.40;;
8139;SDS011;4111;50.972;7.072;2022-09-01T09:27:18;2.90;;;1.30;;
8139;SDS011;4111;50.972;7.072;2022-09-01T09:32:42;3.33;;;1.30;;
8139;SDS011;4111;50.972;7.072;2022-09-01T09:35:50;2.55;;;1.30;;
8139;SDS011;4111;50.972;7.072;2022-09-01T09:38:23;1.60;;;1.50;;
8139;SDS011;4111;50.972;7.072;2022-09-01T09:43:45;1.15;;;1.15;;
8139;SDS011;4111;50.972;7.072;2022-09-01T09:54:29;1.50;;;1.40;;
8139;SDS011;4111;50.972;7.072;2022-09-01T09:57:04;2.78;;;1.30;;
8139;SDS011;4111;50.972;7.072;2022-09-01T10:04:50;1.42;;;1.33;;
8139;SDS011;4111;50.972;7.072;2022-09-01T10:07:31;1.40;;;1.30;;
8139;SDS011;4111;50.972;7.072;2022-09-01T10:10:07;3.10;;;1.38;;
8139;SDS011;4111;50.972;7.072;2022-09-01T10:13:23;1.60;;;1.42;;
8139;SDS011;4111;50.972;7.072;2022-09-01T10:15:53;2.10;;;1.63;;
8139;SDS011;4111;50.972;7.072;2022-09-01T10:18:29;1.10;;;1.10;;
8139;SDS011;4111;50.972;7.072;2022-09-01T10:21:02;1.40;;;1.40;;
8139;SDS011;4111;50.972;7.072;2022-09-01T10:23:34;1.42;;;1.33;;
8139;SDS011;4111;50.972;7.072;2022-09-01T10:26:06;2.05;;;1.50;;
8139;SDS011;4111;50.972;7.072;2022-09-01T10:28:40;1.80;;;1.70;;
8139;SDS011;4111;50.972;7.072;2022-09-01T10:31:15;1.40;;;1.30;;
8139;SDS011;4111;50.972;7.072;2022-09-01T10:33:43;1.50;;;1.40;;
8139;SDS011;4111;50.972;7.072;2022-09-01T10:36:10;2.05;;;1.40;;
8139;SDS011;4111;50.972;7.072;2022-09-01T10:38:40;3.13;;;1.30;;
8139;SDS011;4111;50.972;7.072;2022-09-01T10:44:35;2.42;;;1.40;;
8139;SDS011;4111;50.972;7.072;2022-09-01T10:47:27;2.45;;;1.63;;
8139;SDS011;4111;50.972;7.072;2022-09-01T10:50:00;7.13;;;1.63;;
8139;SDS011;4111;50.972;7.072;2022-09-01T10:55:36;1.70;;;1.60;;
8139;SDS011;4111;50.972;7.072;2022-09-01T11:01:36;3.22;;;1.52;;
8139;SDS011;4111;50.972;7.072;2022-09-01T11:06:57;3.17;;;1.48;;
8139;SDS011;4111;50.972;7.072;2022-09-01T11:09:41;1.40;;;1.30;;
8139;SDS011;4111;50.972;7.072;2022-09-01T11:12:19;3.20;;;1.58;;
8139;SDS011;4111;50.972;7.072;2022-09-01T11:20:22;1.75;;;1.65;;
8139;SDS011;4111;50.972;7.072;2022-09-01T11:28:48;2.22;;;1.77;;
8139;SDS011;4111;50.972;7.072;2022-09-01T11:38:50;2.58;;;1.60;;
8139;SDS011;4111;50.972;7.072;2022-09-01T11:41:21;4.00;;;1.70;;
8139;SDS011;4111;50.972;7.072;2022-09-01T11:43:52;2.30;;;1.70;;
8139;SDS011;4111;50.972;7.072;2022-09-01T11:46:26;3.63;;;1.83;;
8139;SDS011;4111;50.972;7.072;2022-09-01T11:48:56;3.72;;;1.92;;
8139;SDS011;4111;50.972;7.072;2022-09-01T11:51:25;2.08;;;1.90;;
8139;SDS011;4111;50.972;7.072;2022-09-01T11:53:52;2.72;;;1.80;;
8139;SDS011;4111;50.972;7.072;2022-09-01T11:56:26;2.95;;;1.55;;
8139;SDS011;4111;50.972;7.072;2022-09-01T11:58:53;2.83;;;1.75;;
8139;SDS011;4111;50.972;7.072;2022-09-01T12:03:55;1.92;;;1.80;;
8139;SDS011;4111;50.972;7.072;2022-09-01T12:06:24;1.90;;;1.70;;
8139;SDS011;4111;50.972;7.072;2022-09-01T12:08:58;1.77;;;1.60;;
8139;SDS011;4111;50.972;7.072;2022-09-01T12:11:30;2.08;;;1.83;;
8139;SDS011;4111;50.972;7.072;2022-09-01T12:14:00;2.25;;;2.03;;
8139;SDS011;4111;50.972;7.072;2022-09-01T12:16:32;2.13;;;1.80;;
8139;SDS011;4111;50.972;7.072;2022-09-01T12:19:04;2.35;;;1.60;;
8139;SDS011;4111;50.972;7.072;2022-09-01T12:21:32;2.13;;;1.77;;
8139;SDS011;4111;50.972;7.072;2022-09-01T12:24:11;1.85;;;1.75;;
8139;SDS011;4111;50.972;7.072;2022-09-01T12:26:40;1.65;;;1.60;;
8139;SDS011;4111;50.972;7.072;2022-09-01T12:29:10;2.85;;;1.58;;
8139;SDS011;4111;50.972;7.072;2022-09-01T12:31:42;2.00;;;1.90;;
8139;SDS011;4111;50.972;7.072;2022-09-01T12:39:47;2.28;;;2.03;;
8139;SDS011;4111;50.972;7.072;2022-09-01T12:44:49;3.75;;;1.98;;
8139;SDS011;4111;50.972;7.072;2022-09-01T12:50:05;2.30;;;2.10;;
8139;SDS011;4111;50.972;7.072;2022-09-01T12:52:43;2.33;;;2.15;;
8139;SDS011;4111;50.972;7.072;2022-09-01T12:55:15;1.70;;;1.60;;
8139;SDS011;4111;50.972;7.072;2022-09-01T12:58:04;2.25;;;1.92;;
8139;SDS011;4111;50.972;7.072;2022-09-01T13:00:33;1.90;;;1.80;;
8139;SDS011;4111;50.972;7.072;2022-09-01T13:08:08;2.15;;;2.05;;
8139;SDS011;4111;50.972;7.072;2022-09-01T13:10:43;3.58;;;1.92;;
8139;SDS011;4111;50.972;7.072;2022-09-01T13:13:13;2.10;;;1.85;;
8139;SDS011;4111;50.972;7.072;2022-09-01T13:15:42;2.10;;;2.00;;
8139;SDS011;4111;50.972;7.072;2022-09-01T13:18:13;3.58;;;1.80;;
8139;SDS011;4111;50.972;7.072;2022-09-01T13:20:40;1.67;;;1.58;;
8139;SDS011;4111;50.972;7.072;2022-09-01T13:23:07;2.13;;;2.03;;
8139;SDS011;4111;50.972;7.072;2022-09-01T13:25:35;9.40;;;2.42;;
8139;SDS011;4111;50.972;7.072;2022-09-01T13:28:01;2.60;;;2.10;;
8139;SDS011;4111;50.972;7.072;2022-09-01T13:30:28;1.92;;;1.83;;
8139;SDS011;4111;50.972;7.072;2022-09-01T13:32:56;3.90;;;2.00;;
8139;SDS011;4111;50.972;7.072;2022-09-01T13:35:43;5.03;;;2.40;;
8139;SDS011;4111;50.972;7.072;2022-09-01T13:38:09;1.98;;;1.88;;
8139;SDS011;4111;50.972;7.072;2022-09-01T13:40:36;2.88;;;2.15;;
8139;SDS011;4111;50.972;7.072;2022-09-01T13:43:02;2.20;;;2.00;;
8139;SDS011;4111;50.972;7.072;2022-09-01T13:45:29;1.95;;;1.85;;
8139;SDS011;4111;50.972;7.072;2022-09-01T13:47:57;2.05;;;1.80;;
8139;SDS011;4111;50.972;7.072;2022-09-01T13:50:44;1.90;;;1.80;;
8139;SDS011;4111;50.972;7.072;2022-09-01T13:53:32;2.30;;;2.00;;
8139;SDS011;4111;50.972;7.072;2022-09-01T13:55:58;2.30;;;2.13;;
8139;SDS011;4111;50.972;7.072;2022-09-01T13:58:25;3.40;;;2.28;;
8139;SDS011;4111;50.972;7.072;2022-09-01T14:00:52;7.60;;;2.20;;
8139;SDS011;4111;50.972;7.072;2022-09-01T14:03:20;3.45;;;2.22;;
8139;SDS011;4111;50.972;7.072;2022-09-01T14:05:48;3.25;;;2.00;;
8139;SDS011;4111;50.972;7.072;2022-09-01T14:08:17;2.10;;;2.00;;
8139;SDS011;4111;50.972;7.072;2022-09-01T14:10:47;2.13;;;1.92;;
8139;SDS011;4111;50.972;7.072;2022-09-01T14:13:16;2.72;;;2.35;;
8139;SDS011;4111;50.972;7.072;2022-09-01T14:15:45;3.55;;;2.50;;
8139;SDS011;4111;50.972;7.072;2022-09-01T14:18:13;2.10;;;2.00;;
8139;SDS011;4111;50.972;7.072;2022-09-01T14:20:42;2.45;;;2.15;;
8139;SDS011;4111;50.972;7.072;2022-09-01T14:23:11;2.50;;;2.10;;
8139;SDS011;4111;50.972;7.072;2022-09-01T14:25:46;3.53;;;2.25;;
8139;SDS011;4111;50.972;7.072;2022-09-01T14:28:14;1.80;;;1.70;;
8139;SDS011;4111;50.972;7.072;2022-09-01T14:30:46;2.20;;;2.00;;
8139;SDS011;4111;50.972;7.072;2022-09-01T14:33:14;2.60;;;2.17;;
8139;SDS011;4111;50.972;7.072;2022-09-01T14:35:43;3.15;;;2.30;;
8139;SDS011;4111;50.972;7.072;2022-09-01T14:38:12;2.63;;;2.42;;
8139;SDS011;4111;50.972;7.072;2022-09-01T14:40:40;2.47;;;2.28;;
8139;SDS011;4111;50.972;7.072;2022-09-01T14:43:09;2.40;;;2.20;;
8139;SDS011;4111;50.972;7.072;2022-09-01T14:45:39;2.30;;;2.08;;
8139;SDS011;4111;50.972;7.072;2022-09-01T14:48:06;2.05;;;1.90;;
8139;SDS011;4111;50.972;7.072;2022-09-01T14:50:37;2.83;;;2.00;;
8139;SDS011;4111;50.972;7.072;2022-09-01T14:53:06;3.42;;;2.33;;
8139;SDS011;4111;50.972;7.072;2022-09-01T14:55:33;1.98;;;1.88;;
8139;SDS011;4111;50.972;7.072;2022-09-01T14:57:59;2.58;;;2.05;;
8139;SDS011;4111;50.972;7.072;2022-09-01T15:00:26;3.03;;;1.80;;
8139;SDS011;4111;50.972;7.072;2022-09-01T15:02:53;2.17;;;1.90;;
8139;SDS011;4111;50.972;7.072;2022-09-01T15:05:21;4.53;;;1.92;;
8139;SDS011;4111;50.972;7.072;2022-09-01T15:07:48;2.10;;;2.00;;
8139;SDS011;4111;50.972;7.072;2022-09-01T15:10:16;2.45;;;1.80;;
8139;SDS011;4111;50.972;7.072;2022-09-01T15:12:51;3.05;;;2.00;;
8139;SDS011;4111;50.972;7.072;2022-09-01T15:15:19;4.97;;;2.08;;
8139;SDS011;4111;50.972;7.072;2022-09-01T15:17:46;1.60;;;1.50;;
8139;SDS011;4111;50.972;7.072;2022-09-01T15:20:12;2.08;;;1.80;;
8139;SDS011;4111;50.972;7.072;2022-09-01T15:22:57;2.50;;;1.98;;
8139;SDS011;4111;50.972;7.072;2022-09-01T15:25:24;2.20;;;2.00;;
8139;SDS011;4111;50.972;7.072;2022-09-01T15:27:50;3.38;;;1.70;;
8139;SDS011;4111;50.972;7.072;2022-09-01T15:30:17;1.70;;;1.60;;
8139;SDS011;4111;50.972;7.072;2022-09-01T15:32:46;3.58;;;1.60;;
8139;SDS011;4111;50.972;7.072;2022-09-01T15:35:14;2.20;;;1.73;;
8139;SDS011;4111;50.972;7.072;2022-09-01T15:37:42;1.83;;;1.73;;
8139;SDS011;4111;50.972;7.072;2022-09-01T15:40:10;1.90;;;1.80;;
8139;SDS011;4111;50.972;7.072;2022-09-01T15:42:40;1.95;;;1.85;;
8139;SDS011;4111;50.972;7.072;2022-09-01T15:45:09;2.85;;;1.70;;
8139;SDS011;4111;50.972;7.072;2022-09-01T15:47:37;2.38;;;1.67;;
8139;SDS011;4111;50.972;7.072;2022-09-01T15:50:11;2.10;;;1.70;;
8139;SDS011;4111;50.972;7.072;2022-09-01T15:55:23;1.83;;;1.73;;
8139;SDS011;4111;50.972;7.072;2022-09-01T15:57:51;3.72;;;1.75;;
8139;SDS011;4111;50.972;7.072;2022-09-01T16:00:21;3.53;;;1.85;;
8139;SDS011;4111;50.972;7.072;2022-09-01T16:02:50;2.90;;;1.98;;
8139;SDS011;4111;50.972;7.072;2022-09-01T16:05:17;1.75;;;1.55;;
8139;SDS011;4111;50.972;7.072;2022-09-01T16:07:43;3.38;;;2.00;;
8139;SDS011;4111;50.972;7.072;2022-09-01T16:10:10;1.77;;;1.67;;
8139;SDS011;4111;50.972;7.072;2022-09-01T16:12:38;3.15;;;1.48;;
8139;SDS011;4111;50.972;7.072;2022-09-01T16:15:13;5.40;;;1.70;;
8139;SDS011;4111;50.972;7.072;2022-09-01T16:18:18;2.20;;;2.00;;
8139;SDS011;4111;50.972;7.072;2022-09-01T16:20:54;1.75;;;1.50;;
8139;SDS011;4111;50.972;7.072;2022-09-01T16:23:43;2.67;;;1.67;;
8139;SDS011;4111;50.972;7.072;2022-09-01T16:26:14;2.90;;;1.83;;
8139;SDS011;4111;50.972;7.072;2022-09-01T16:28:47;1.83;;;1.73;;
8139;SDS011;4111;50.972;7.072;2022-09-01T16:31:17;2.40;;;1.85;;
8139;SDS011;4111;50.972;7.072;2022-09-01T16:33:50;2.20;;;1.65;;
8139;SDS011;4111;50.972;7.072;2022-09-01T16:36:35;11.63;;;2.72;;
8139;SDS011;4111;50.972;7.072;2022-09-01T16:39:12;2.50;;;1.65;;
8139;SDS011;4111;50.972;7.072;2022-09-01T16:42:02;2.08;;;1.88;;
8139;SDS011;4111;50.972;7.072;2022-09-01T16:44:45;3.90;;;1.80;;
8139;SDS011;4111;50.972;7.072;2022-09-01T16:47:42;2.20;;;2.00;;
8139;SDS011;4111;50.972;7.072;2022-09-01T16:50:39;1.90;;;1.80;;
8139;SDS011;4111;50.972;7.072;2022-09-01T16:56:08;4.18;;;1.52;;
8139;SDS011;4111;50.972;7.072;2022-09-01T17:04:18;1.90;;;1.70;;
8139;SDS011;4111;50.972;7.072;2022-09-01T17:07:14;3.00;;;1.77;;
8139;SDS011;4111;50.972;7.072;2022-09-01T17:10:02;2.72;;;1.50;;
8139;SDS011;4111;50.972;7.072;2022-09-01T17:15:10;1.70;;;1.50;;
8139;SDS011;4111;50.972;7.072;2022-09-01T17:20:54;2.85;;;1.67;;
8139;SDS011;4111;50.972;7.072;2022-09-01T17:23:29;1.58;;;1.50;;